createdAt,value
2018-06-25T00:02:18.767Z,6.90
2018-06-25T00:04:53.343Z,6.87
2018-06-25T00:07:27.917Z,6.97
2018-06-25T00:10:02.353Z,6.77
2018-06-25T00:12:36.799Z,7.03
2018-06-25T00:15:11.319Z,8.10
2018-06-25T00:17:45.787Z,8.17
2018-06-25T00:20:20.399Z,8.40
2018-06-25T00:22:54.952Z,8.70
2018-06-25T00:25:29.437Z,8.97
2018-06-25T00:28:04.185Z,7.80
2018-06-25T00:30:38.731Z,7.30
2018-06-25T00:33:13.255Z,6.20
2018-06-25T00:35:47.784Z,6.10
2018-06-25T00:38:22.405Z,6.00
2018-06-25T00:40:56.815Z,6.03
2018-06-25T00:43:31.436Z,6.43
2018-06-25T00:46:05.930Z,6.67
2018-06-25T00:48:43.525Z,6.00
2018-06-25T00:51:18.116Z,6.70
2018-06-25T00:53:52.862Z,8.00
2018-06-25T00:56:27.289Z,9.17
2018-06-25T00:59:13.184Z,8.60
2018-06-25T01:01:47.561Z,8.00
2018-06-25T01:04:22.073Z,8.40
2018-06-25T01:06:56.498Z,9.13
2018-06-25T01:09:31.064Z,7.83
2018-06-25T01:12:05.678Z,11.33
2018-06-25T01:14:40.348Z,10.63
2018-06-25T01:17:14.957Z,10.60
2018-06-25T01:19:49.620Z,11.67
2018-06-25T01:22:24.270Z,12.43
2018-06-25T01:24:58.787Z,11.13
2018-06-25T01:27:33.364Z,11.07
2018-06-25T01:30:07.912Z,11.17
2018-06-25T01:32:42.281Z,10.60
2018-06-25T01:35:16.863Z,9.83
2018-06-25T01:37:51.413Z,10.90
2018-06-25T01:40:26.304Z,9.17
2018-06-25T01:43:01.482Z,11.23
2018-06-25T01:45:36.639Z,11.10
2018-06-25T01:48:11.529Z,10.17
2018-06-25T01:50:46.178Z,10.13
2018-06-25T01:53:20.799Z,8.60
2018-06-25T01:55:55.462Z,8.03
2018-06-25T01:58:30.594Z,8.37
2018-06-25T02:01:05.295Z,9.40
2018-06-25T02:03:39.851Z,9.10
2018-06-25T02:06:14.408Z,8.33
2018-06-25T02:08:48.979Z,8.60
2018-06-25T02:11:23.489Z,7.37
2018-06-25T02:13:58.076Z,8.67
2018-06-25T02:16:33.034Z,7.57
2018-06-25T02:19:08.040Z,7.37
2018-06-25T02:21:42.620Z,7.30
2018-06-25T02:24:17.876Z,6.13
2018-06-25T02:26:52.536Z,8.50
2018-06-25T02:29:27.100Z,7.33
2018-06-25T02:32:01.688Z,7.30
2018-06-25T02:34:36.263Z,7.40
2018-06-25T02:37:10.740Z,8.27
2018-06-25T02:39:45.225Z,7.77
2018-06-25T02:42:19.985Z,9.13
2018-06-25T02:44:54.606Z,10.50
2018-06-25T02:47:29.069Z,9.10
2018-06-25T02:50:03.511Z,9.80
2018-06-25T02:52:37.985Z,10.43
2018-06-25T02:55:12.697Z,9.57
2018-06-25T02:57:47.190Z,11.77
2018-06-25T03:00:21.713Z,10.50
2018-06-25T03:02:56.223Z,10.13
2018-06-25T03:05:31.571Z,10.57
2018-06-25T03:08:06.500Z,11.50
2018-06-25T03:10:41.063Z,11.03
2018-06-25T03:13:16.098Z,10.23
2018-06-25T03:15:50.724Z,11.57
2018-06-25T03:18:28.399Z,11.30
2018-06-25T03:21:03.117Z,12.37
2018-06-25T03:23:38.282Z,10.73
2018-06-25T03:26:12.754Z,10.77
2018-06-25T03:28:47.399Z,10.33
2018-06-25T03:31:22.092Z,9.87
2018-06-25T03:33:57.049Z,9.97
2018-06-25T03:36:31.512Z,9.63
2018-06-25T03:39:07.978Z,10.40
2018-06-25T03:41:42.504Z,11.40
2018-06-25T03:44:17.129Z,11.53
2018-06-25T03:46:51.612Z,11.63
2018-06-25T03:49:26.200Z,11.60
2018-06-25T03:52:00.672Z,10.77
2018-06-25T03:54:35.093Z,11.07
2018-06-25T03:57:09.607Z,11.53
2018-06-25T03:59:44.261Z,10.70
2018-06-25T04:02:19.952Z,12.20
2018-06-25T04:04:54.685Z,11.27
2018-06-25T04:07:29.422Z,11.47
2018-06-25T04:10:04.012Z,12.47
2018-06-25T04:12:38.714Z,9.73
2018-06-25T04:15:13.317Z,9.83
2018-06-25T04:17:47.993Z,8.33
2018-06-25T04:20:22.502Z,9.10
2018-06-25T04:22:56.876Z,9.17
2018-06-25T04:25:31.325Z,9.10
2018-06-25T04:28:05.838Z,10.47
2018-06-25T04:30:40.455Z,10.43
2018-06-25T04:33:15.017Z,10.83
2018-06-25T04:35:49.551Z,10.57
2018-06-25T04:38:24.082Z,10.97
2018-06-25T04:40:58.472Z,10.80
2018-06-25T04:43:32.916Z,13.40
2018-06-25T04:46:07.421Z,15.63
2018-06-25T04:48:42.083Z,15.73
2018-06-25T04:51:16.557Z,16.47
2018-06-25T04:53:51.237Z,17.10
2018-06-25T04:56:25.733Z,17.37
2018-06-25T04:59:00.226Z,18.27
2018-06-25T05:01:34.844Z,19.27
2018-06-25T05:04:09.364Z,24.27
2018-06-25T05:06:44.227Z,20.33
2018-06-25T05:09:18.920Z,20.33
2018-06-25T05:11:53.361Z,19.63
2018-06-25T05:14:27.912Z,19.10
2018-06-25T05:17:02.483Z,16.60
2018-06-25T05:19:36.929Z,18.87
2018-06-25T05:22:11.511Z,18.33
2018-06-25T05:24:46.007Z,19.13
2018-06-25T05:27:20.491Z,18.57
2018-06-25T05:29:55.016Z,19.07
2018-06-25T05:32:29.705Z,17.83
2018-06-25T05:35:04.255Z,16.80
2018-06-25T05:37:38.858Z,16.93
2018-06-25T05:40:13.558Z,14.53
2018-06-25T05:42:48.292Z,14.37
2018-06-25T05:45:22.732Z,13.97
2018-06-25T05:47:57.309Z,14.53
2018-06-25T05:50:32.079Z,13.77
2018-06-25T05:53:06.552Z,12.17
2018-06-25T05:55:41.116Z,11.97
2018-06-25T05:58:15.760Z,12.73
2018-06-25T06:00:50.245Z,11.90
2018-06-25T06:03:24.858Z,10.50
2018-06-25T06:05:59.322Z,11.43
2018-06-25T06:08:33.792Z,10.10
2018-06-25T06:11:08.266Z,10.80
2018-06-25T06:13:42.699Z,9.77
2018-06-25T06:16:17.216Z,10.53
2018-06-25T06:18:51.850Z,13.27
2018-06-25T06:21:26.373Z,12.07
2018-06-25T06:24:01.111Z,12.50
2018-06-25T06:26:35.724Z,13.27
2018-06-25T06:29:10.165Z,14.20
2018-06-25T06:31:44.827Z,14.30
2018-06-25T06:34:19.450Z,14.13
2018-06-25T06:36:53.860Z,15.97
2018-06-25T06:39:28.240Z,14.37
2018-06-25T06:42:02.747Z,14.90
2018-06-25T06:44:37.295Z,14.97
2018-06-25T06:47:11.873Z,16.57
2018-06-25T06:49:46.481Z,16.00
2018-06-25T06:52:21.032Z,17.00
2018-06-25T06:54:55.667Z,17.20
2018-06-25T06:57:30.306Z,16.10
2018-06-25T07:00:05.369Z,16.60
2018-06-25T07:02:39.796Z,15.73
2018-06-25T07:05:14.401Z,16.60
2018-06-25T07:07:49.076Z,16.97
2018-06-25T07:10:23.659Z,19.30
2018-06-25T07:12:58.200Z,21.30
2018-06-25T07:15:32.812Z,19.80
2018-06-25T07:18:07.862Z,19.40
2018-06-25T07:20:42.441Z,20.47
2018-06-25T07:23:17.155Z,18.80
2018-06-25T07:25:51.838Z,18.83
2018-06-25T07:28:26.491Z,16.50
2018-06-25T07:31:00.953Z,15.83
2018-06-25T07:33:35.541Z,14.90
2018-06-25T07:36:10.176Z,14.43
2018-06-25T07:38:45.230Z,13.07
2018-06-25T07:41:19.775Z,13.77
2018-06-25T07:43:54.294Z,14.57
2018-06-25T07:46:28.879Z,15.67
2018-06-25T07:49:03.461Z,13.27
2018-06-25T07:51:38.158Z,14.40
2018-06-25T07:54:12.744Z,12.53
2018-06-25T07:56:47.191Z,11.87
2018-06-25T07:59:21.552Z,11.77
2018-06-25T08:01:56.197Z,10.77
2018-06-25T08:04:30.804Z,11.40
2018-06-25T08:07:05.922Z,12.40
2018-06-25T08:09:40.558Z,12.73
2018-06-25T08:12:15.097Z,12.27
2018-06-25T08:14:49.819Z,11.50
2018-06-25T08:17:24.492Z,10.17
2018-06-25T08:19:58.979Z,8.97
2018-06-25T08:22:33.585Z,9.40
2018-06-25T08:25:08.110Z,10.10
2018-06-25T08:27:42.660Z,9.83
2018-06-25T08:30:17.359Z,10.23
2018-06-25T08:32:52.135Z,12.10
2018-06-25T08:35:26.794Z,11.90
2018-06-25T08:38:01.248Z,11.17
2018-06-25T08:40:35.798Z,11.40
2018-06-25T08:43:10.468Z,11.57
2018-06-25T08:45:44.995Z,12.77
2018-06-25T08:48:19.641Z,12.07
2018-06-25T08:50:54.260Z,11.53
2018-06-25T08:53:28.988Z,12.60
2018-06-25T08:56:03.687Z,12.20
2018-06-25T08:58:38.280Z,11.43
2018-06-25T09:01:12.961Z,13.67
2018-06-25T09:03:47.536Z,11.97
2018-06-25T09:06:21.976Z,11.73
2018-06-25T09:08:56.907Z,12.40
2018-06-25T09:11:31.505Z,12.00
2018-06-25T09:14:06.391Z,12.93
2018-06-25T09:16:41.003Z,13.67
2018-06-25T09:19:15.659Z,14.47
2018-06-25T09:21:50.221Z,16.87
2018-06-25T09:24:24.910Z,17.93
2018-06-25T09:26:59.580Z,20.20
2018-06-25T09:29:34.169Z,15.87
2018-06-25T09:32:08.924Z,15.47
2018-06-25T09:34:47.376Z,12.37
2018-06-25T09:37:21.897Z,12.70
2018-06-25T09:39:56.452Z,12.20
2018-06-25T09:42:31.057Z,17.37
2018-06-25T09:45:06.514Z,18.23
2018-06-25T09:47:41.001Z,18.43
2018-06-25T09:50:16.250Z,15.07
2018-06-25T09:52:50.894Z,15.17
2018-06-25T09:55:25.529Z,13.60
2018-06-25T09:57:59.954Z,12.37
2018-06-25T10:00:39.932Z,12.57
2018-06-25T10:03:14.486Z,13.30
2018-06-25T10:05:49.093Z,14.97
2018-06-25T10:08:23.577Z,15.93
2018-06-25T10:10:58.249Z,17.90
2018-06-25T10:13:32.902Z,18.70
2018-06-25T10:16:07.586Z,18.67
2018-06-25T10:18:42.063Z,19.93
2018-06-25T10:21:16.421Z,19.63
2018-06-25T10:23:50.932Z,17.90
2018-06-25T10:26:25.545Z,18.43
2018-06-25T10:29:00.127Z,18.23
2018-06-25T10:31:34.578Z,19.80
2018-06-25T10:34:09.233Z,19.30
2018-06-25T10:36:43.669Z,19.90
2018-06-25T10:39:18.287Z,21.07
2018-06-25T10:41:52.802Z,22.50
2018-06-25T10:44:27.423Z,21.77
2018-06-25T10:47:02.095Z,22.27
2018-06-25T10:49:36.688Z,20.37
2018-06-25T10:52:11.309Z,19.37
2018-06-25T10:54:45.908Z,18.87
2018-06-25T10:57:20.545Z,18.40
2018-06-25T10:59:55.219Z,17.90
2018-06-25T11:02:29.644Z,18.17
2018-06-25T11:05:04.192Z,16.60
2018-06-25T11:07:39.692Z,14.70
2018-06-25T11:10:14.016Z,10.73
2018-06-25T11:12:48.515Z,11.50
2018-06-25T11:15:23.014Z,11.97
2018-06-25T11:17:57.513Z,10.37
2018-06-25T11:20:31.990Z,9.67
2018-06-25T11:23:06.554Z,9.10
2018-06-25T11:25:41.119Z,8.90
2018-06-25T11:28:15.719Z,8.63
2018-06-25T11:30:50.205Z,8.63
2018-06-25T11:33:24.837Z,8.67
2018-06-25T11:35:59.396Z,8.30
2018-06-25T11:38:33.870Z,7.80
2018-06-25T11:41:08.614Z,7.80
2018-06-25T11:43:43.101Z,7.43
2018-06-25T11:46:17.699Z,6.77
2018-06-25T11:48:52.308Z,7.13
2018-06-25T11:51:26.797Z,6.93
2018-06-25T11:54:01.417Z,6.67
2018-06-25T11:56:36.077Z,6.80
2018-06-25T11:59:10.750Z,6.93
2018-06-25T12:01:45.330Z,7.90
2018-06-25T12:04:19.888Z,6.03
2018-06-25T12:06:54.485Z,5.80
2018-06-25T12:09:29.497Z,6.57
2018-06-25T12:12:04.033Z,6.27
2018-06-25T12:14:38.494Z,6.20
2018-06-25T12:17:13.127Z,8.37
2018-06-25T12:19:47.832Z,9.47
2018-06-25T12:22:22.458Z,6.87
2018-06-25T12:24:57.137Z,8.17
2018-06-25T12:27:31.763Z,6.50
2018-06-25T12:30:06.240Z,6.00
2018-06-25T12:32:40.794Z,6.57
2018-06-25T12:35:15.432Z,9.33
2018-06-25T12:37:50.203Z,9.57
2018-06-25T12:40:24.702Z,10.27
2018-06-25T12:42:59.434Z,9.47
2018-06-25T12:45:33.839Z,8.90
2018-06-25T12:48:08.433Z,10.50
2018-06-25T12:50:43.040Z,10.27
2018-06-25T12:53:17.460Z,11.57
2018-06-25T12:55:51.853Z,14.23
2018-06-25T12:58:26.405Z,14.73
2018-06-25T13:01:01.112Z,13.07
2018-06-25T13:03:35.890Z,12.10
2018-06-25T13:06:10.706Z,13.00
2018-06-25T13:08:45.260Z,11.83
2018-06-25T13:11:20.090Z,12.20
2018-06-25T13:13:54.671Z,12.13
2018-06-25T13:16:29.285Z,11.33
2018-06-25T13:19:04.015Z,9.47
2018-06-25T13:21:38.685Z,7.27
2018-06-25T13:24:13.233Z,7.20
2018-06-25T13:26:47.744Z,5.93
2018-06-25T13:29:22.502Z,6.63
2018-06-25T13:31:57.019Z,7.63
2018-06-25T13:34:31.556Z,7.83
2018-06-25T13:37:05.945Z,8.33
2018-06-25T13:39:40.395Z,9.40
2018-06-25T13:42:14.766Z,9.30
2018-06-25T13:44:49.285Z,8.40
2018-06-25T13:47:23.921Z,8.10
2018-06-25T13:49:58.398Z,7.23
2018-06-25T13:52:32.926Z,8.30
2018-06-25T13:55:07.762Z,6.77
2018-06-25T13:57:42.276Z,6.40
2018-06-25T14:00:16.826Z,5.10
2018-06-25T14:02:51.547Z,5.17
2018-06-25T14:05:26.180Z,5.33
2018-06-25T14:08:00.592Z,5.80
2018-06-25T14:10:34.985Z,5.77
2018-06-25T14:13:09.462Z,5.63
2018-06-25T14:15:44.048Z,5.13
2018-06-25T14:18:18.502Z,4.57
2018-06-25T14:20:52.992Z,4.97
2018-06-25T14:23:27.414Z,4.60
2018-06-25T14:26:07.238Z,5.03
2018-06-25T14:28:41.698Z,5.33
2018-06-25T14:31:21.419Z,3.83
2018-06-25T14:34:01.234Z,3.20
2018-06-25T14:36:35.741Z,3.77
2018-06-25T14:39:10.808Z,4.07
2018-06-25T14:41:45.376Z,3.70
2018-06-25T14:44:19.941Z,3.33
2018-06-25T14:46:54.389Z,3.00
2018-06-25T14:49:29.066Z,3.20
2018-06-25T14:52:03.608Z,3.13
2018-06-25T14:54:38.048Z,3.30
2018-06-25T14:57:12.474Z,3.30
2018-06-25T14:59:46.943Z,3.20
2018-06-25T15:02:21.585Z,3.23
2018-06-25T15:04:56.147Z,3.40
2018-06-25T15:07:30.549Z,3.27
2018-06-25T15:10:05.054Z,3.90
2018-06-25T15:12:39.672Z,3.43
2018-06-25T15:15:14.132Z,3.33
2018-06-25T15:17:48.474Z,3.57
2018-06-25T15:20:22.875Z,3.70
2018-06-25T15:22:57.353Z,4.00
2018-06-25T15:25:32.136Z,3.50
2018-06-25T15:28:06.708Z,3.47
2018-06-25T15:30:41.383Z,4.13
2018-06-25T15:33:16.074Z,3.50
2018-06-25T15:35:50.774Z,4.00
2018-06-25T15:38:25.750Z,3.83
2018-06-25T15:41:00.905Z,4.57
2018-06-25T15:43:35.399Z,4.07
2018-06-25T15:46:09.872Z,4.30
2018-06-25T15:48:44.371Z,4.13
2018-06-25T15:51:18.873Z,4.53
2018-06-25T15:53:53.402Z,4.53
2018-06-25T15:56:28.022Z,5.07
2018-06-25T15:59:02.440Z,4.40
2018-06-25T16:01:36.860Z,3.90
2018-06-25T16:04:11.517Z,3.83
2018-06-25T16:06:46.119Z,4.23
2018-06-25T16:09:20.790Z,3.97
2018-06-25T16:11:55.280Z,3.30
2018-06-25T16:14:29.717Z,4.50
2018-06-25T16:17:04.469Z,4.90
2018-06-25T16:19:39.128Z,4.50
2018-06-25T16:22:13.988Z,3.60
2018-06-25T16:24:48.653Z,4.53
2018-06-25T16:27:23.360Z,4.63
2018-06-25T16:29:58.049Z,3.33
2018-06-25T16:32:32.560Z,4.27
2018-06-25T16:35:07.040Z,3.80
2018-06-25T16:37:41.419Z,3.90
2018-06-25T16:40:16.021Z,4.47
2018-06-25T16:42:50.660Z,3.60
2018-06-25T16:45:25.029Z,3.53
2018-06-25T16:47:59.487Z,3.73
2018-06-25T16:50:33.864Z,3.13
2018-06-25T16:53:08.336Z,3.90
2018-06-25T16:55:42.725Z,3.50
2018-06-25T16:58:17.332Z,3.47
2018-06-25T17:00:51.912Z,3.50
2018-06-25T17:03:26.304Z,3.43
2018-06-25T17:06:00.931Z,3.40
2018-06-25T17:08:35.455Z,3.10
2018-06-25T17:11:10.095Z,3.50
2018-06-25T17:13:44.714Z,3.30
2018-06-25T17:16:19.342Z,3.57
2018-06-25T17:18:53.765Z,2.83
2018-06-25T17:21:28.151Z,3.03
2018-06-25T17:24:02.745Z,3.90
2018-06-25T17:26:41.385Z,3.23
2018-06-25T17:29:16.508Z,3.17
2018-06-25T17:31:51.133Z,2.87
2018-06-25T17:34:25.873Z,3.43
2018-06-25T17:37:00.501Z,2.93
2018-06-25T17:39:35.136Z,3.00
2018-06-25T17:42:09.643Z,3.13
2018-06-25T17:44:44.228Z,3.27
2018-06-25T17:47:18.714Z,2.87
2018-06-25T17:49:53.180Z,2.60
2018-06-25T17:52:27.814Z,2.50
2018-06-25T17:55:02.380Z,2.53
2018-06-25T17:57:37.045Z,2.37
2018-06-25T18:00:11.489Z,3.03
2018-06-25T18:02:46.235Z,2.87
2018-06-25T18:05:20.779Z,2.60
2018-06-25T18:07:55.355Z,3.00
2018-06-25T18:10:29.991Z,2.70
2018-06-25T18:13:04.445Z,2.50
2018-06-25T18:15:38.916Z,2.77
2018-06-25T18:18:13.677Z,3.00
2018-06-25T18:20:48.107Z,2.47
2018-06-25T18:23:22.652Z,2.57
2018-06-25T18:25:57.162Z,2.40
2018-06-25T18:28:31.676Z,2.40
2018-06-25T18:31:06.212Z,2.70
2018-06-25T18:33:40.735Z,3.33
2018-06-25T18:36:15.352Z,2.27
2018-06-25T18:38:50.018Z,2.23
2018-06-25T18:41:24.677Z,2.60
2018-06-25T18:43:59.237Z,2.20
2018-06-25T18:46:33.842Z,2.47
2018-06-25T18:49:08.579Z,2.30
2018-06-25T18:51:43.065Z,2.00
2018-06-25T18:54:17.514Z,2.07
2018-06-25T18:56:52.069Z,2.73
2018-06-25T18:59:26.643Z,2.60
2018-06-25T19:02:01.200Z,3.23
2018-06-25T19:04:35.796Z,2.50
2018-06-25T19:07:10.220Z,2.53
2018-06-25T19:09:44.867Z,2.43
2018-06-25T19:12:19.225Z,2.70
2018-06-25T19:14:53.745Z,2.70
2018-06-25T19:17:28.195Z,2.10
2018-06-25T19:20:02.788Z,2.40
2018-06-25T19:22:37.334Z,2.17
2018-06-25T19:25:12.009Z,2.00
2018-06-25T19:27:46.438Z,2.40
2018-06-25T19:30:20.935Z,2.20
2018-06-25T19:32:55.348Z,2.60
2018-06-25T19:35:29.826Z,2.50
2018-06-25T19:38:04.268Z,2.60
2018-06-25T19:40:38.732Z,2.20
2018-06-25T19:43:13.449Z,2.37
2018-06-25T19:45:48.089Z,3.07
2018-06-25T19:48:22.560Z,2.17
2018-06-25T19:50:57.261Z,2.70
2018-06-25T19:53:31.772Z,2.40
2018-06-25T19:56:06.329Z,2.63
2018-06-25T19:58:40.809Z,2.70
2018-06-25T20:01:15.395Z,2.87
2018-06-25T20:03:50.035Z,2.60
2018-06-25T20:06:25.108Z,3.13
2018-06-25T20:08:59.698Z,2.83
2018-06-25T20:11:34.290Z,3.50
2018-06-25T20:14:08.830Z,3.60
2018-06-25T20:16:43.464Z,3.67
2018-06-25T20:19:17.980Z,3.40
2018-06-25T20:21:52.482Z,3.93
2018-06-25T20:24:27.213Z,3.37
2018-06-25T20:27:01.721Z,3.40
2018-06-25T20:29:36.256Z,3.73
2018-06-25T20:32:10.756Z,3.63
2018-06-25T20:34:45.297Z,3.47
2018-06-25T20:37:19.893Z,3.10
2018-06-25T20:39:54.494Z,3.30
2018-06-25T20:42:29.221Z,3.27
2018-06-25T20:45:03.788Z,3.10
2018-06-25T20:47:38.534Z,3.27
2018-06-25T20:50:13.121Z,3.03
2018-06-25T20:52:50.681Z,2.90
2018-06-25T20:55:25.248Z,3.60
2018-06-25T20:57:59.864Z,3.37
2018-06-25T21:00:34.373Z,3.27
2018-06-25T21:03:08.868Z,3.03
2018-06-25T21:05:43.316Z,3.17
2018-06-25T21:08:17.743Z,3.50
2018-06-25T21:10:52.213Z,3.70
2018-06-25T21:13:26.660Z,3.10
2018-06-25T21:16:01.089Z,3.00
2018-06-25T21:18:35.452Z,3.57
2018-06-25T21:21:10.026Z,3.40
2018-06-25T21:23:44.604Z,3.20
2018-06-25T21:26:19.185Z,3.20
2018-06-25T21:28:54.018Z,3.80
2018-06-25T21:31:28.709Z,3.77
2018-06-25T21:34:03.300Z,3.47
2018-06-25T21:36:37.880Z,3.67
2018-06-25T21:39:12.524Z,3.77
2018-06-25T21:41:47.159Z,3.80
2018-06-25T21:44:21.542Z,4.10
2018-06-25T21:46:56.213Z,4.20
2018-06-25T21:49:30.929Z,4.43
2018-06-25T21:52:05.738Z,4.57
2018-06-25T21:54:40.312Z,4.50
2018-06-25T21:57:14.922Z,4.57
2018-06-25T21:59:49.428Z,4.77
2018-06-25T22:02:24.004Z,4.90
2018-06-25T22:04:58.569Z,4.50
2018-06-25T22:07:33.018Z,4.87
2018-06-25T22:10:08.333Z,5.50
2018-06-25T22:12:42.988Z,5.03
2018-06-25T22:15:17.562Z,5.77
2018-06-25T22:17:52.170Z,5.40
2018-06-25T22:20:26.596Z,6.03
2018-06-25T22:23:01.121Z,5.87
2018-06-25T22:25:35.603Z,5.90
2018-06-25T22:28:10.015Z,5.20
2018-06-25T22:30:44.670Z,5.33
2018-06-25T22:33:19.286Z,6.40
2018-06-25T22:35:53.877Z,6.00
2018-06-25T22:38:28.522Z,6.63
2018-06-25T22:41:03.026Z,6.03
2018-06-25T22:43:38.523Z,5.67
2018-06-25T22:46:13.001Z,5.80
2018-06-25T22:48:47.677Z,6.23
2018-06-25T22:51:22.259Z,7.00
2018-06-25T22:53:56.903Z,6.40
2018-06-25T22:56:31.392Z,6.43
2018-06-25T22:59:06.533Z,6.40
2018-06-25T23:01:41.007Z,5.90
2018-06-25T23:04:15.564Z,7.67
2018-06-25T23:06:50.196Z,6.93
2018-06-25T23:09:24.636Z,5.80
2018-06-25T23:11:59.145Z,6.50
2018-06-25T23:14:33.672Z,6.40
2018-06-25T23:17:08.254Z,7.73
2018-06-25T23:19:42.898Z,7.07
2018-06-25T23:22:17.410Z,7.00
2018-06-25T23:24:51.888Z,8.50
2018-06-25T23:27:26.510Z,7.60
2018-06-25T23:30:01.181Z,7.30
2018-06-25T23:32:35.825Z,7.90
2018-06-25T23:35:10.457Z,7.63
2018-06-25T23:37:44.889Z,7.10
2018-06-25T23:40:19.440Z,7.53
2018-06-25T23:42:53.832Z,7.43
2018-06-25T23:45:28.125Z,7.63
2018-06-25T23:48:02.717Z,8.07
2018-06-25T23:50:37.455Z,8.23
2018-06-25T23:53:12.058Z,8.63
2018-06-25T23:55:46.566Z,8.47
2018-06-25T23:58:21.281Z,7.73
